Veresegyház, Hungary

12:36 AM CET on February 07, 2016 (GMT +0100)
Weather of Veresegyh | | Change Station
CLOSE
Current Station
Personal Weather Station
Location: Veresegyhz, PEST
Elevation: 577 ft
Nearby Weather Stations

Elev 577 ft 47.65 °N, 19.29 °E | Updated 52 seconds ago

Clear
Clear
34.0 °F
Feels Like 34 °F
N
0.0
Wind Variable Wind from East
Gusts 1.2 mph

Today
High -- | Low -- °F
--% Chance of Precip.
Yesterday
High -- | Low -- °F
Precip. -- in
Pressure 30.24 in
Visibility 5.0 miles
Clouds
Windchill 34 °F
Dew Point 31 °F
Humidity 90%
Rainfall 0.00 in
Snow Depth Not available.
7:02 AM 4:52 PM
Waning Crescent, 4% visible
METAR LHBP 062330Z 10010KT 8000 NSC 01/01 Q1024 NOSIG
Pressure 30.24 in
Visibility 5.0 miles
Clouds
Windchill 34 °F
Dew Point 31 °F
Humidity 90%
Rainfall 0.00 in
Snow Depth Not available.
7:02 AM 4:52 PM
Waning Crescent, 4% visible
METAR LHBP 062330Z 10010KT 8000 NSC 01/01 Q1024 NOSIG

10-Day Weather Forecast

Almanac

Astronomy

Feb. 07, 2016 Rise Set
Actual Time
Civil Twilight
Nautical Twilight
Astronomical Twilight
Moon
Length of Visible Light
Length of Day
Tomorrow will be .
, % of the Moon is Illuminated

Today's Extremes

Country Highs Country Lows

Community

WunderPhotos

Upload Photos

1,891,098 photos uploaded!

WunderBlog® & News

Nearby

Air Quality

  Air Quality AQ Index Pollutant
Not available.

Snow Depth

Station Depth Elevation

Earthquake Activity

City Distance Mag. Time & Date
Minimum magnitude displayed is 2.5.

Coastal Water Temperatures

Place Temperature

Stations

Nearby Weather Stations

Station Location Temp. Windchill Dew Point Humidity Wind Precip. Elev Updated Type